sensor_id;sensor_type;location;lat;lon;timestamp;P1;durP1;ratioP1;P2;durP2;ratioP2
62030;SDS011;62035;52.094;5.112;2024-02-04T00:00:20;29.52;;;10.77;;
62030;SDS011;62035;52.094;5.112;2024-02-04T00:02:48;33.40;;;10.13;;
62030;SDS011;62035;52.094;5.112;2024-02-04T00:05:15;30.20;;;10.95;;
62030;SDS011;62035;52.094;5.112;2024-02-04T00:10:42;28.00;;;11.10;;
62030;SDS011;62035;52.094;5.112;2024-02-04T00:13:09;32.63;;;10.57;;
62030;SDS011;62035;52.094;5.112;2024-02-04T00:15:38;26.40;;;9.10;;
62030;SDS011;62035;52.094;5.112;2024-02-04T00:18:05;27.13;;;10.25;;
62030;SDS011;62035;52.094;5.112;2024-02-04T00:20:33;23.55;;;10.30;;
62030;SDS011;62035;52.094;5.112;2024-02-04T00:23:00;25.98;;;10.65;;
62030;SDS011;62035;52.094;5.112;2024-02-04T00:25:27;28.42;;;10.30;;
62030;SDS011;62035;52.094;5.112;2024-02-04T00:27:55;19.25;;;9.13;;
62030;SDS011;62035;52.094;5.112;2024-02-04T00:30:22;23.42;;;9.88;;
62030;SDS011;62035;52.094;5.112;2024-02-04T00:32:51;29.30;;;9.80;;
62030;SDS011;62035;52.094;5.112;2024-02-04T00:35:18;22.35;;;9.45;;
62030;SDS011;62035;52.094;5.112;2024-02-04T00:37:45;23.15;;;9.43;;
62030;SDS011;62035;52.094;5.112;2024-02-04T00:40:13;29.17;;;9.27;;
62030;SDS011;62035;52.094;5.112;2024-02-04T00:42:40;25.10;;;8.45;;
62030;SDS011;62035;52.094;5.112;2024-02-04T00:45:07;26.83;;;8.80;;
62030;SDS011;62035;52.094;5.112;2024-02-04T00:47:35;20.25;;;8.65;;
62030;SDS011;62035;52.094;5.112;2024-02-04T00:50:04;20.88;;;8.65;;
62030;SDS011;62035;52.094;5.112;2024-02-04T00:52:32;29.13;;;9.00;;
62030;SDS011;62035;52.094;5.112;2024-02-04T00:54:59;23.65;;;8.80;;
62030;SDS011;62035;52.094;5.112;2024-02-04T00:57:26;21.75;;;8.18;;
62030;SDS011;62035;52.094;5.112;2024-02-04T00:59:53;21.73;;;8.48;;
62030;SDS011;62035;52.094;5.112;2024-02-04T01:02:20;30.42;;;8.90;;
62030;SDS011;62035;52.094;5.112;2024-02-04T01:04:48;19.02;;;7.97;;
62030;SDS011;62035;52.094;5.112;2024-02-04T01:07:17;28.52;;;8.68;;
62030;SDS011;62035;52.094;5.112;2024-02-04T01:09:44;24.20;;;8.73;;
62030;SDS011;62035;52.094;5.112;2024-02-04T01:12:11;23.10;;;7.57;;
62030;SDS011;62035;52.094;5.112;2024-02-04T01:14:39;20.85;;;7.55;;
62030;SDS011;62035;52.094;5.112;2024-02-04T01:17:06;27.67;;;8.43;;
62030;SDS011;62035;52.094;5.112;2024-02-04T01:19:33;24.50;;;8.88;;
62030;SDS011;62035;52.094;5.112;2024-02-04T01:22:01;25.48;;;8.25;;
62030;SDS011;62035;52.094;5.112;2024-02-04T01:24:29;21.40;;;7.93;;
62030;SDS011;62035;52.094;5.112;2024-02-04T01:26:57;22.17;;;7.57;;
62030;SDS011;62035;52.094;5.112;2024-02-04T01:29:24;27.30;;;8.05;;
62030;SDS011;62035;52.094;5.112;2024-02-04T01:31:51;24.35;;;7.28;;
62030;SDS011;62035;52.094;5.112;2024-02-04T01:34:18;18.98;;;8.05;;
62030;SDS011;62035;52.094;5.112;2024-02-04T01:36:45;21.90;;;7.50;;
62030;SDS011;62035;52.094;5.112;2024-02-04T01:39:13;21.20;;;6.82;;
62030;SDS011;62035;52.094;5.112;2024-02-04T01:41:41;15.00;;;6.10;;
62030;SDS011;62035;52.094;5.112;2024-02-04T01:44:10;17.15;;;6.07;;
62030;SDS011;62035;52.094;5.112;2024-02-04T01:46:38;21.33;;;6.63;;
62030;SDS011;62035;52.094;5.112;2024-02-04T01:49:05;17.02;;;6.72;;
62030;SDS011;62035;52.094;5.112;2024-02-04T01:51:32;26.05;;;7.22;;
62030;SDS011;62035;52.094;5.112;2024-02-04T01:53:59;21.17;;;7.45;;
62030;SDS011;62035;52.094;5.112;2024-02-04T01:56:27;27.15;;;8.10;;
62030;SDS011;62035;52.094;5.112;2024-02-04T01:58:56;28.13;;;8.45;;
62030;SDS011;62035;52.094;5.112;2024-02-04T02:01:24;25.13;;;9.55;;
62030;SDS011;62035;52.094;5.112;2024-02-04T02:03:53;30.30;;;10.32;;
62030;SDS011;62035;52.094;5.112;2024-02-04T02:06:20;32.20;;;10.32;;
62030;SDS011;62035;52.094;5.112;2024-02-04T02:08:48;33.45;;;11.27;;
62030;SDS011;62035;52.094;5.112;2024-02-04T02:11:18;30.00;;;11.18;;
62030;SDS011;62035;52.094;5.112;2024-02-04T02:13:49;27.60;;;12.00;;
62030;SDS011;62035;52.094;5.112;2024-02-04T02:16:23;33.60;;;12.23;;
62030;SDS011;62035;52.094;5.112;2024-02-04T02:18:52;30.00;;;11.57;;
62030;SDS011;62035;52.094;5.112;2024-02-04T02:21:26;34.67;;;11.10;;
62030;SDS011;62035;52.094;5.112;2024-02-04T02:24:10;36.17;;;11.88;;
62030;SDS011;62035;52.094;5.112;2024-02-04T02:26:39;34.22;;;11.52;;
62030;SDS011;62035;52.094;5.112;2024-02-04T02:29:07;32.47;;;12.30;;
62030;SDS011;62035;52.094;5.112;2024-02-04T02:31:35;32.88;;;12.27;;
62030;SDS011;62035;52.094;5.112;2024-02-04T02:34:03;31.13;;;11.90;;
62030;SDS011;62035;52.094;5.112;2024-02-04T02:36:33;31.23;;;11.18;;
62030;SDS011;62035;52.094;5.112;2024-02-04T02:39:09;25.65;;;10.68;;
62030;SDS011;62035;52.094;5.112;2024-02-04T02:41:43;31.85;;;10.77;;
62030;SDS011;62035;52.094;5.112;2024-02-04T02:44:14;27.27;;;9.75;;
62030;SDS011;62035;52.094;5.112;2024-02-04T02:46:42;26.75;;;10.00;;
62030;SDS011;62035;52.094;5.112;2024-02-04T02:49:10;29.33;;;9.98;;
62030;SDS011;62035;52.094;5.112;2024-02-04T02:51:38;22.27;;;9.50;;
62030;SDS011;62035;52.094;5.112;2024-02-04T02:54:05;25.83;;;8.93;;
62030;SDS011;62035;52.094;5.112;2024-02-04T02:56:33;24.77;;;9.40;;
62030;SDS011;62035;52.094;5.112;2024-02-04T02:59:01;20.85;;;7.90;;
62030;SDS011;62035;52.094;5.112;2024-02-04T03:01:30;27.52;;;8.68;;
62030;SDS011;62035;52.094;5.112;2024-02-04T03:03:57;31.55;;;7.95;;
62030;SDS011;62035;52.094;5.112;2024-02-04T03:06:24;23.73;;;7.43;;
62030;SDS011;62035;52.094;5.112;2024-02-04T03:08:51;20.85;;;6.57;;
62030;SDS011;62035;52.094;5.112;2024-02-04T03:11:19;20.45;;;6.43;;
62030;SDS011;62035;52.094;5.112;2024-02-04T03:13:46;27.98;;;7.07;;
62030;SDS011;62035;52.094;5.112;2024-02-04T03:16:14;15.38;;;5.68;;
62030;SDS011;62035;52.094;5.112;2024-02-04T03:18:42;15.77;;;6.50;;
62030;SDS011;62035;52.094;5.112;2024-02-04T03:21:13;17.38;;;5.80;;
62030;SDS011;62035;52.094;5.112;2024-02-04T03:23:40;18.07;;;4.93;;
62030;SDS011;62035;52.094;5.112;2024-02-04T03:26:08;20.10;;;5.50;;
62030;SDS011;62035;52.094;5.112;2024-02-04T03:28:36;25.45;;;6.28;;
62030;SDS011;62035;52.094;5.112;2024-02-04T03:31:03;21.73;;;6.35;;
62030;SDS011;62035;52.094;5.112;2024-02-04T03:33:32;20.25;;;6.45;;
62030;SDS011;62035;52.094;5.112;2024-02-04T03:35:59;18.50;;;6.38;;
62030;SDS011;62035;52.094;5.112;2024-02-04T03:38:26;18.15;;;6.07;;
62030;SDS011;62035;52.094;5.112;2024-02-04T03:40:54;25.42;;;6.65;;
62030;SDS011;62035;52.094;5.112;2024-02-04T03:43:21;18.20;;;6.05;;
62030;SDS011;62035;52.094;5.112;2024-02-04T03:45:48;22.40;;;6.32;;
62030;SDS011;62035;52.094;5.112;2024-02-04T03:48:15;18.52;;;6.93;;
62030;SDS011;62035;52.094;5.112;2024-02-04T03:50:44;16.95;;;5.82;;
62030;SDS011;62035;52.094;5.112;2024-02-04T03:53:11;10.60;;;5.15;;
62030;SDS011;62035;52.094;5.112;2024-02-04T03:55:38;21.73;;;5.60;;
62030;SDS011;62035;52.094;5.112;2024-02-04T03:58:05;16.55;;;4.78;;
62030;SDS011;62035;52.094;5.112;2024-02-04T04:00:32;11.57;;;4.75;;
62030;SDS011;62035;52.094;5.112;2024-02-04T04:02:59;16.00;;;3.92;;
62030;SDS011;62035;52.094;5.112;2024-02-04T04:05:27;11.98;;;3.78;;
62030;SDS011;62035;52.094;5.112;2024-02-04T04:07:55;10.10;;;3.00;;
62030;SDS011;62035;52.094;5.112;2024-02-04T04:10:22;16.50;;;3.67;;
62030;SDS011;62035;52.094;5.112;2024-02-04T04:12:50;10.85;;;3.55;;
62030;SDS011;62035;52.094;5.112;2024-02-04T04:15:17;14.45;;;3.63;;
62030;SDS011;62035;52.094;5.112;2024-02-04T04:17:44;10.95;;;3.25;;
62030;SDS011;62035;52.094;5.112;2024-02-04T04:20:11;13.38;;;4.25;;
62030;SDS011;62035;52.094;5.112;2024-02-04T04:22:39;11.75;;;4.15;;
62030;SDS011;62035;52.094;5.112;2024-02-04T04:25:09;14.07;;;4.40;;
62030;SDS011;62035;52.094;5.112;2024-02-04T04:27:36;15.77;;;5.28;;
62030;SDS011;62035;52.094;5.112;2024-02-04T04:30:03;15.27;;;4.60;;
62030;SDS011;62035;52.094;5.112;2024-02-04T04:32:31;18.52;;;5.20;;
62030;SDS011;62035;52.094;5.112;2024-02-04T04:34:58;18.83;;;6.18;;
62030;SDS011;62035;52.094;5.112;2024-02-04T04:37:26;15.02;;;5.35;;
62030;SDS011;62035;52.094;5.112;2024-02-04T04:39:53;15.00;;;5.03;;
62030;SDS011;62035;52.094;5.112;2024-02-04T04:42:22;20.48;;;5.20;;
62030;SDS011;62035;52.094;5.112;2024-02-04T04:44:49;13.77;;;5.72;;
62030;SDS011;62035;52.094;5.112;2024-02-04T04:47:15;17.63;;;5.95;;
62030;SDS011;62035;52.094;5.112;2024-02-04T04:49:42;15.05;;;5.15;;
62030;SDS011;62035;52.094;5.112;2024-02-04T04:52:09;17.60;;;6.15;;
62030;SDS011;62035;52.094;5.112;2024-02-04T04:54:36;16.92;;;5.43;;
62030;SDS011;62035;52.094;5.112;2024-02-04T04:57:04;17.27;;;5.80;;
62030;SDS011;62035;52.094;5.112;2024-02-04T04:59:33;16.77;;;5.85;;
62030;SDS011;62035;52.094;5.112;2024-02-04T05:02:01;17.00;;;5.97;;
62030;SDS011;62035;52.094;5.112;2024-02-04T05:04:28;13.93;;;6.07;;
62030;SDS011;62035;52.094;5.112;2024-02-04T05:06:56;17.63;;;6.43;;
62030;SDS011;62035;52.094;5.112;2024-02-04T05:09:23;18.17;;;5.55;;
62030;SDS011;62035;52.094;5.112;2024-02-04T05:11:50;17.92;;;6.47;;
62030;SDS011;62035;52.094;5.112;2024-02-04T05:14:17;19.67;;;6.18;;
62030;SDS011;62035;52.094;5.112;2024-02-04T05:16:46;16.35;;;5.93;;
62030;SDS011;62035;52.094;5.112;2024-02-04T05:19:14;12.82;;;4.95;;
62030;SDS011;62035;52.094;5.112;2024-02-04T05:21:41;15.20;;;5.72;;
62030;SDS011;62035;52.094;5.112;2024-02-04T05:24:08;15.85;;;6.10;;
62030;SDS011;62035;52.094;5.112;2024-02-04T05:26:35;13.90;;;5.10;;
62030;SDS011;62035;52.094;5.112;2024-02-04T05:29:02;16.33;;;5.18;;
62030;SDS011;62035;52.094;5.112;2024-02-04T05:31:29;14.68;;;4.82;;
62030;SDS011;62035;52.094;5.112;2024-02-04T05:33:58;19.58;;;5.28;;
62030;SDS011;62035;52.094;5.112;2024-02-04T05:36:25;15.20;;;5.03;;
62030;SDS011;62035;52.094;5.112;2024-02-04T05:38:52;15.95;;;5.38;;
62030;SDS011;62035;52.094;5.112;2024-02-04T05:41:19;17.23;;;6.68;;
62030;SDS011;62035;52.094;5.112;2024-02-04T05:43:47;14.10;;;5.47;;
62030;SDS011;62035;52.094;5.112;2024-02-04T05:46:14;16.80;;;6.60;;
62030;SDS011;62035;52.094;5.112;2024-02-04T05:48:41;20.58;;;6.90;;
62030;SDS011;62035;52.094;5.112;2024-02-04T05:51:12;16.83;;;7.43;;
62030;SDS011;62035;52.094;5.112;2024-02-04T05:53:39;24.95;;;8.10;;
62030;SDS011;62035;52.094;5.112;2024-02-04T05:56:06;16.90;;;7.60;;
62030;SDS011;62035;52.094;5.112;2024-02-04T05:58:33;14.38;;;7.78;;
62030;SDS011;62035;52.094;5.112;2024-02-04T06:01:00;27.65;;;9.55;;
62030;SDS011;62035;52.094;5.112;2024-02-04T06:03:29;21.98;;;10.10;;
62030;SDS011;62035;52.094;5.112;2024-02-04T06:05:56;30.15;;;10.82;;
62030;SDS011;62035;52.094;5.112;2024-02-04T06:08:25;24.50;;;10.52;;
62030;SDS011;62035;52.094;5.112;2024-02-04T06:10:52;32.25;;;11.40;;
62030;SDS011;62035;52.094;5.112;2024-02-04T06:13:19;25.85;;;11.82;;
62030;SDS011;62035;52.094;5.112;2024-02-04T06:15:46;27.88;;;11.77;;
62030;SDS011;62035;52.094;5.112;2024-02-04T06:18:13;23.05;;;11.95;;
62030;SDS011;62035;52.094;5.112;2024-02-04T06:20:40;27.40;;;12.35;;
62030;SDS011;62035;52.094;5.112;2024-02-04T06:23:08;31.55;;;12.40;;
62030;SDS011;62035;52.094;5.112;2024-02-04T06:25:36;27.90;;;12.00;;
62030;SDS011;62035;52.094;5.112;2024-02-04T06:28:03;28.30;;;11.80;;
62030;SDS011;62035;52.094;5.112;2024-02-04T06:30:31;25.38;;;11.48;;
62030;SDS011;62035;52.094;5.112;2024-02-04T06:32:58;23.77;;;10.93;;
62030;SDS011;62035;52.094;5.112;2024-02-04T06:35:25;22.52;;;10.57;;
62030;SDS011;62035;52.094;5.112;2024-02-04T06:37:53;23.30;;;10.77;;
62030;SDS011;62035;52.094;5.112;2024-02-04T06:40:20;25.25;;;10.50;;
62030;SDS011;62035;52.094;5.112;2024-02-04T06:42:48;21.40;;;9.73;;
62030;SDS011;62035;52.094;5.112;2024-02-04T06:45:16;20.58;;;9.95;;
62030;SDS011;62035;52.094;5.112;2024-02-04T06:47:43;32.50;;;11.13;;
62030;SDS011;62035;52.094;5.112;2024-02-04T06:50:10;23.92;;;10.38;;
62030;SDS011;62035;52.094;5.112;2024-02-04T06:52:39;31.20;;;10.43;;
62030;SDS011;62035;52.094;5.112;2024-02-04T06:55:06;20.63;;;10.13;;
62030;SDS011;62035;52.094;5.112;2024-02-04T06:57:34;19.10;;;10.70;;
62030;SDS011;62035;52.094;5.112;2024-02-04T07:00:03;21.45;;;9.93;;
62030;SDS011;62035;52.094;5.112;2024-02-04T07:02:33;23.10;;;10.43;;
62030;SDS011;62035;52.094;5.112;2024-02-04T07:05:00;18.73;;;9.48;;
62030;SDS011;62035;52.094;5.112;2024-02-04T07:07:28;22.77;;;9.35;;
62030;SDS011;62035;52.094;5.112;2024-02-04T07:09:55;17.85;;;8.85;;
62030;SDS011;62035;52.094;5.112;2024-02-04T07:12:22;25.92;;;9.73;;
62030;SDS011;62035;52.094;5.112;2024-02-04T07:14:50;23.30;;;9.18;;
62030;SDS011;62035;52.094;5.112;2024-02-04T07:17:18;15.25;;;8.73;;
62030;SDS011;62035;52.094;5.112;2024-02-04T07:19:45;16.35;;;7.75;;
62030;SDS011;62035;52.094;5.112;2024-02-04T07:22:13;19.98;;;7.90;;
62030;SDS011;62035;52.094;5.112;2024-02-04T07:24:41;19.98;;;7.72;;
62030;SDS011;62035;52.094;5.112;2024-02-04T07:27:08;17.95;;;7.65;;
62030;SDS011;62035;52.094;5.112;2024-02-04T07:29:35;18.77;;;7.43;;
62030;SDS011;62035;52.094;5.112;2024-02-04T07:32:03;19.73;;;7.90;;
62030;SDS011;62035;52.094;5.112;2024-02-04T07:34:32;16.85;;;6.80;;
62030;SDS011;62035;52.094;5.112;2024-02-04T07:36:59;15.73;;;7.05;;
62030;SDS011;62035;52.094;5.112;2024-02-04T07:39:26;15.52;;;7.07;;
62030;SDS011;62035;52.094;5.112;2024-02-04T07:41:53;18.55;;;7.50;;
62030;SDS011;62035;52.094;5.112;2024-02-04T07:44:22;17.10;;;7.20;;
62030;SDS011;62035;52.094;5.112;2024-02-04T07:46:50;15.73;;;6.38;;
62030;SDS011;62035;52.094;5.112;2024-02-04T07:49:17;19.27;;;7.22;;
62030;SDS011;62035;52.094;5.112;2024-02-04T07:51:45;11.82;;;6.07;;
62030;SDS011;62035;52.094;5.112;2024-02-04T07:54:12;14.73;;;5.60;;
62030;SDS011;62035;52.094;5.112;2024-02-04T07:56:40;16.95;;;5.75;;
62030;SDS011;62035;52.094;5.112;2024-02-04T07:59:07;19.02;;;5.70;;
62030;SDS011;62035;52.094;5.112;2024-02-04T08:01:34;13.82;;;5.30;;
62030;SDS011;62035;52.094;5.112;2024-02-04T08:04:01;10.50;;;5.03;;
62030;SDS011;62035;52.094;5.112;2024-02-04T08:06:29;8.98;;;4.30;;
62030;SDS011;62035;52.094;5.112;2024-02-04T08:08:57;10.73;;;4.00;;
62030;SDS011;62035;52.094;5.112;2024-02-04T08:11:24;8.43;;;3.97;;
62030;SDS011;62035;52.094;5.112;2024-02-04T08:13:52;7.60;;;3.55;;
62030;SDS011;62035;52.094;5.112;2024-02-04T08:16:19;10.25;;;3.78;;
62030;SDS011;62035;52.094;5.112;2024-02-04T08:18:46;9.80;;;3.65;;
62030;SDS011;62035;52.094;5.112;2024-02-04T08:21:14;5.82;;;3.10;;
62030;SDS011;62035;52.094;5.112;2024-02-04T08:23:41;9.02;;;3.50;;
62030;SDS011;62035;52.094;5.112;2024-02-04T08:26:11;9.27;;;3.47;;
62030;SDS011;62035;52.094;5.112;2024-02-04T08:28:38;7.75;;;3.50;;
62030;SDS011;62035;52.094;5.112;2024-02-04T08:31:05;9.45;;;3.85;;
62030;SDS011;62035;52.094;5.112;2024-02-04T08:33:32;13.65;;;4.10;;
62030;SDS011;62035;52.094;5.112;2024-02-04T08:36:00;14.73;;;5.00;;
62030;SDS011;62035;52.094;5.112;2024-02-04T08:38:27;14.32;;;5.63;;
62030;SDS011;62035;52.094;5.112;2024-02-04T08:40:54;18.33;;;6.57;;
62030;SDS011;62035;52.094;5.112;2024-02-04T08:43:23;19.83;;;7.45;;
62030;SDS011;62035;52.094;5.112;2024-02-04T08:45:50;13.50;;;6.05;;
62030;SDS011;62035;52.094;5.112;2024-02-04T08:48:17;14.85;;;5.85;;
62030;SDS011;62035;52.094;5.112;2024-02-04T08:50:44;21.80;;;6.13;;
62030;SDS011;62035;52.094;5.112;2024-02-04T08:53:11;18.60;;;5.97;;
62030;SDS011;62035;52.094;5.112;2024-02-04T08:55:39;11.82;;;5.10;;
62030;SDS011;62035;52.094;5.112;2024-02-04T08:58:06;14.73;;;4.35;;
62030;SDS011;62035;52.094;5.112;2024-02-04T09:00:34;12.82;;;4.63;;
62030;SDS011;62035;52.094;5.112;2024-02-04T09:03:02;9.77;;;4.40;;
62030;SDS011;62035;52.094;5.112;2024-02-04T09:05:29;10.40;;;4.47;;
62030;SDS011;62035;52.094;5.112;2024-02-04T09:07:56;12.70;;;4.03;;
62030;SDS011;62035;52.094;5.112;2024-02-04T09:10:23;12.32;;;3.47;;
62030;SDS011;62035;52.094;5.112;2024-02-04T09:12:51;13.23;;;3.88;;
62030;SDS011;62035;52.094;5.112;2024-02-04T09:15:18;13.35;;;3.53;;
62030;SDS011;62035;52.094;5.112;2024-02-04T09:17:46;10.43;;;3.30;;
62030;SDS011;62035;52.094;5.112;2024-02-04T09:20:14;10.00;;;3.17;;
62030;SDS011;62035;52.094;5.112;2024-02-04T09:22:41;10.82;;;2.75;;
62030;SDS011;62035;52.094;5.112;2024-02-04T09:25:08;6.28;;;2.83;;
62030;SDS011;62035;52.094;5.112;2024-02-04T09:27:35;11.73;;;3.20;;
62030;SDS011;62035;52.094;5.112;2024-02-04T09:30:03;11.70;;;3.10;;
62030;SDS011;62035;52.094;5.112;2024-02-04T09:32:31;13.20;;;2.95;;
62030;SDS011;62035;52.094;5.112;2024-02-04T09:35:01;14.75;;;3.10;;
62030;SDS011;62035;52.094;5.112;2024-02-04T09:37:28;9.30;;;2.60;;
62030;SDS011;62035;52.094;5.112;2024-02-04T09:39:55;8.18;;;3.30;;
62030;SDS011;62035;52.094;5.112;2024-02-04T09:42:22;13.57;;;2.92;;
62030;SDS011;62035;52.094;5.112;2024-02-04T09:44:50;12.35;;;3.33;;
62030;SDS011;62035;52.094;5.112;2024-02-04T09:47:17;9.82;;;2.35;;
62030;SDS011;62035;52.094;5.112;2024-02-04T09:49:45;11.02;;;2.58;;
62030;SDS011;62035;52.094;5.112;2024-02-04T09:52:13;11.15;;;2.40;;
62030;SDS011;62035;52.094;5.112;2024-02-04T09:54:48;11.30;;;2.70;;
62030;SDS011;62035;52.094;5.112;2024-02-04T09:57:17;8.65;;;2.28;;
62030;SDS011;62035;52.094;5.112;2024-02-04T09:59:44;9.35;;;3.65;;
62030;SDS011;62035;52.094;5.112;2024-02-04T10:02:12;8.13;;;2.10;;
62030;SDS011;62035;52.094;5.112;2024-02-04T10:04:40;9.77;;;2.05;;
62030;SDS011;62035;52.094;5.112;2024-02-04T10:07:07;8.13;;;2.30;;
62030;SDS011;62035;52.094;5.112;2024-02-04T10:09:35;6.97;;;2.53;;
62030;SDS011;62035;52.094;5.112;2024-02-04T10:12:03;11.25;;;2.72;;
62030;SDS011;62035;52.094;5.112;2024-02-04T10:14:30;6.18;;;1.90;;
62030;SDS011;62035;52.094;5.112;2024-02-04T10:16:57;4.68;;;1.50;;
62030;SDS011;62035;52.094;5.112;2024-02-04T10:19:25;7.65;;;1.83;;
62030;SDS011;62035;52.094;5.112;2024-02-04T10:21:59;5.07;;;1.50;;
62030;SDS011;62035;52.094;5.112;2024-02-04T10:24:26;5.53;;;1.60;;
62030;SDS011;62035;52.094;5.112;2024-02-04T10:26:55;7.82;;;1.67;;
62030;SDS011;62035;52.094;5.112;2024-02-04T10:29:23;2.58;;;1.33;;
62030;SDS011;62035;52.094;5.112;2024-02-04T10:31:52;4.10;;;1.45;;
62030;SDS011;62035;52.094;5.112;2024-02-04T10:34:20;4.43;;;1.20;;
62030;SDS011;62035;52.094;5.112;2024-02-04T10:36:48;3.85;;;1.38;;
62030;SDS011;62035;52.094;5.112;2024-02-04T10:39:15;4.00;;;1.20;;
62030;SDS011;62035;52.094;5.112;2024-02-04T10:41:44;2.97;;;1.10;;
62030;SDS011;62035;52.094;5.112;2024-02-04T10:44:18;3.58;;;1.13;;
62030;SDS011;62035;52.094;5.112;2024-02-04T10:46:48;1.63;;;0.93;;
62030;SDS011;62035;52.094;5.112;2024-02-04T10:49:17;2.17;;;1.10;;
62030;SDS011;62035;52.094;5.112;2024-02-04T10:51:45;2.78;;;1.02;;
62030;SDS011;62035;52.094;5.112;2024-02-04T10:54:14;2.38;;;1.30;;
62030;SDS011;62035;52.094;5.112;2024-02-04T10:56:44;2.20;;;1.17;;
62030;SDS011;62035;52.094;5.112;2024-02-04T10:59:12;3.55;;;2.00;;
62030;SDS011;62035;52.094;5.112;2024-02-04T11:01:45;4.43;;;1.95;;
62030;SDS011;62035;52.094;5.112;2024-02-04T11:04:14;4.20;;;1.63;;
62030;SDS011;62035;52.094;5.112;2024-02-04T11:06:44;5.88;;;2.28;;
62030;SDS011;62035;52.094;5.112;2024-02-04T11:09:11;4.47;;;2.60;;
62030;SDS011;62035;52.094;5.112;2024-02-04T11:11:40;6.22;;;3.03;;
62030;SDS011;62035;52.094;5.112;2024-02-04T11:14:08;6.85;;;3.90;;
62030;SDS011;62035;52.094;5.112;2024-02-04T11:16:50;8.33;;;4.80;;
62030;SDS011;62035;52.094;5.112;2024-02-04T11:19:36;9.63;;;4.47;;
62030;SDS011;62035;52.094;5.112;2024-02-04T11:22:17;15.95;;;4.70;;
62030;SDS011;62035;52.094;5.112;2024-02-04T11:24:59;14.52;;;3.83;;
62030;SDS011;62035;52.094;5.112;2024-02-04T11:27:38;10.20;;;3.92;;
62030;SDS011;62035;52.094;5.112;2024-02-04T11:30:06;10.63;;;3.92;;
62030;SDS011;62035;52.094;5.112;2024-02-04T11:32:36;8.25;;;3.50;;
62030;SDS011;62035;52.094;5.112;2024-02-04T11:35:04;9.65;;;3.40;;
62030;SDS011;62035;52.094;5.112;2024-02-04T11:37:33;12.73;;;3.40;;
62030;SDS011;62035;52.094;5.112;2024-02-04T11:40:03;11.38;;;3.42;;
62030;SDS011;62035;52.094;5.112;2024-02-04T11:42:31;10.40;;;2.85;;
62030;SDS011;62035;52.094;5.112;2024-02-04T11:45:08;7.40;;;2.85;;
62030;SDS011;62035;52.094;5.112;2024-02-04T11:47:37;14.57;;;3.00;;
62030;SDS011;62035;52.094;5.112;2024-02-04T11:50:04;10.02;;;2.72;;
62030;SDS011;62035;52.094;5.112;2024-02-04T11:52:33;8.23;;;2.45;;
62030;SDS011;62035;52.094;5.112;2024-02-04T11:55:00;10.70;;;2.72;;
62030;SDS011;62035;52.094;5.112;2024-02-04T11:57:29;14.80;;;2.67;;
62030;SDS011;62035;52.094;5.112;2024-02-04T11:59:57;10.95;;;2.42;;
62030;SDS011;62035;52.094;5.112;2024-02-04T12:02:25;12.60;;;2.65;;
62030;SDS011;62035;52.094;5.112;2024-02-04T12:04:55;13.75;;;2.22;;
62030;SDS011;62035;52.094;5.112;2024-02-04T12:07:22;11.45;;;2.17;;
62030;SDS011;62035;52.094;5.112;2024-02-04T12:09:50;7.03;;;2.05;;
62030;SDS011;62035;52.094;5.112;2024-02-04T12:12:17;5.13;;;1.90;;
62030;SDS011;62035;52.094;5.112;2024-02-04T12:14:45;6.60;;;1.88;;
62030;SDS011;62035;52.094;5.112;2024-02-04T12:17:13;8.60;;;1.85;;
62030;SDS011;62035;52.094;5.112;2024-02-04T12:19:41;6.78;;;2.03;;
62030;SDS011;62035;52.094;5.112;2024-02-04T12:22:09;7.53;;;1.75;;
62030;SDS011;62035;52.094;5.112;2024-02-04T12:24:36;7.72;;;2.15;;
62030;SDS011;62035;52.094;5.112;2024-02-04T12:27:04;4.90;;;2.00;;
62030;SDS011;62035;52.094;5.112;2024-02-04T12:29:32;8.35;;;2.22;;
62030;SDS011;62035;52.094;5.112;2024-02-04T12:32:00;12.35;;;2.70;;
62030;SDS011;62035;52.094;5.112;2024-02-04T12:34:28;13.38;;;2.67;;
62030;SDS011;62035;52.094;5.112;2024-02-04T12:36:58;6.65;;;1.90;;
62030;SDS011;62035;52.094;5.112;2024-02-04T12:39:27;6.03;;;2.20;;
62030;SDS011;62035;52.094;5.112;2024-02-04T12:41:57;8.77;;;1.85;;
62030;SDS011;62035;52.094;5.112;2024-02-04T12:44:25;9.20;;;2.60;;
62030;SDS011;62035;52.094;5.112;2024-02-04T12:46:52;8.95;;;2.28;;
62030;SDS011;62035;52.094;5.112;2024-02-04T12:49:20;7.93;;;2.10;;
62030;SDS011;62035;52.094;5.112;2024-02-04T12:51:48;6.13;;;2.17;;
62030;SDS011;62035;52.094;5.112;2024-02-04T12:54:17;9.35;;;2.22;;
62030;SDS011;62035;52.094;5.112;2024-02-04T12:56:47;10.55;;;3.45;;
62030;SDS011;62035;52.094;5.112;2024-02-04T12:59:25;10.98;;;2.70;;
62030;SDS011;62035;52.094;5.112;2024-02-04T13:01:54;8.63;;;3.17;;
62030;SDS011;62035;52.094;5.112;2024-02-04T13:04:21;8.30;;;1.90;;
62030;SDS011;62035;52.094;5.112;2024-02-04T13:06:49;7.50;;;1.60;;
62030;SDS011;62035;52.094;5.112;2024-02-04T13:09:17;6.22;;;1.42;;
62030;SDS011;62035;52.094;5.112;2024-02-04T13:11:44;8.40;;;1.55;;
62030;SDS011;62035;52.094;5.112;2024-02-04T13:14:14;7.05;;;1.65;;
62030;SDS011;62035;52.094;5.112;2024-02-04T13:16:41;9.90;;;2.08;;
62030;SDS011;62035;52.094;5.112;2024-02-04T13:19:08;9.13;;;2.40;;
62030;SDS011;62035;52.094;5.112;2024-02-04T13:21:35;11.13;;;2.38;;
62030;SDS011;62035;52.094;5.112;2024-02-04T13:24:02;13.20;;;2.60;;
62030;SDS011;62035;52.094;5.112;2024-02-04T13:26:30;7.68;;;2.55;;
62030;SDS011;62035;52.094;5.112;2024-02-04T13:28:57;16.08;;;3.88;;
62030;SDS011;62035;52.094;5.112;2024-02-04T13:31:25;10.73;;;2.95;;
62030;SDS011;62035;52.094;5.112;2024-02-04T13:33:54;10.82;;;3.45;;
62030;SDS011;62035;52.094;5.112;2024-02-04T13:36:21;13.70;;;3.10;;
62030;SDS011;62035;52.094;5.112;2024-02-04T13:38:49;15.80;;;3.90;;
62030;SDS011;62035;52.094;5.112;2024-02-04T13:41:16;17.13;;;4.30;;
62030;SDS011;62035;52.094;5.112;2024-02-04T13:43:43;16.15;;;3.75;;
62030;SDS011;62035;52.094;5.112;2024-02-04T13:46:11;15.80;;;3.33;;
62030;SDS011;62035;52.094;5.112;2024-02-04T13:48:39;11.15;;;3.17;;
62030;SDS011;62035;52.094;5.112;2024-02-04T13:51:06;11.65;;;3.25;;
62030;SDS011;62035;52.094;5.112;2024-02-04T13:53:34;17.55;;;2.97;;
62030;SDS011;62035;52.094;5.112;2024-02-04T13:56:01;14.15;;;2.90;;
62030;SDS011;62035;52.094;5.112;2024-02-04T13:58:28;13.60;;;3.22;;
62030;SDS011;62035;52.094;5.112;2024-02-04T14:00:56;15.73;;;3.53;;
62030;SDS011;62035;52.094;5.112;2024-02-04T14:03:24;12.10;;;3.00;;
62030;SDS011;62035;52.094;5.112;2024-02-04T14:05:52;11.07;;;3.15;;
62030;SDS011;62035;52.094;5.112;2024-02-04T14:08:21;11.85;;;2.53;;
62030;SDS011;62035;52.094;5.112;2024-02-04T14:10:48;13.25;;;2.45;;
62030;SDS011;62035;52.094;5.112;2024-02-04T14:13:15;9.35;;;2.70;;
62030;SDS011;62035;52.094;5.112;2024-02-04T14:15:43;12.43;;;2.88;;
62030;SDS011;62035;52.094;5.112;2024-02-04T14:18:10;13.77;;;3.03;;
62030;SDS011;62035;52.094;5.112;2024-02-04T14:20:37;17.52;;;4.00;;
62030;SDS011;62035;52.094;5.112;2024-02-04T14:23:05;10.90;;;2.35;;
62030;SDS011;62035;52.094;5.112;2024-02-04T14:25:34;11.63;;;2.33;;
62030;SDS011;62035;52.094;5.112;2024-02-04T14:28:02;9.15;;;2.17;;
62030;SDS011;62035;52.094;5.112;2024-02-04T14:30:30;10.10;;;2.50;;
62030;SDS011;62035;52.094;5.112;2024-02-04T14:32:57;9.20;;;1.92;;
62030;SDS011;62035;52.094;5.112;2024-02-04T14:35:24;8.27;;;2.53;;
62030;SDS011;62035;52.094;5.112;2024-02-04T14:37:51;9.93;;;2.35;;
62030;SDS011;62035;52.094;5.112;2024-02-04T14:40:19;8.75;;;2.40;;
62030;SDS011;62035;52.094;5.112;2024-02-04T14:42:47;8.02;;;2.55;;